sensor_id;sensor_type;location;lat;lon;timestamp;P1;durP1;ratioP1;P2;durP2;ratioP2
39600;SDS011;25297;44.758;11.310;2024-01-06T00:00:30;15.73;;;10.70;;
39600;SDS011;25297;44.758;11.310;2024-01-06T00:02:56;9.98;;;8.45;;
39600;SDS011;25297;44.758;11.310;2024-01-06T00:05:21;9.30;;;6.75;;
39600;SDS011;25297;44.758;11.310;2024-01-06T00:07:47;9.60;;;7.50;;
39600;SDS011;25297;44.758;11.310;2024-01-06T00:10:12;8.55;;;7.60;;
39600;SDS011;25297;44.758;11.310;2024-01-06T00:12:38;10.05;;;7.88;;
39600;SDS011;25297;44.758;11.310;2024-01-06T00:15:04;9.70;;;8.60;;
39600;SDS011;25297;44.758;11.310;2024-01-06T00:17:30;17.58;;;13.00;;
39600;SDS011;25297;44.758;11.310;2024-01-06T00:19:55;8.32;;;7.18;;
39600;SDS011;25297;44.758;11.310;2024-01-06T00:22:21;8.75;;;6.68;;
39600;SDS011;25297;44.758;11.310;2024-01-06T00:24:47;7.15;;;6.47;;
39600;SDS011;25297;44.758;11.310;2024-01-06T00:27:13;9.05;;;8.10;;
39600;SDS011;25297;44.758;11.310;2024-01-06T00:29:40;10.80;;;6.43;;
39600;SDS011;25297;44.758;11.310;2024-01-06T00:32:05;14.98;;;11.00;;
39600;SDS011;25297;44.758;11.310;2024-01-06T00:34:31;9.85;;;6.80;;
39600;SDS011;25297;44.758;11.310;2024-01-06T00:36:57;11.70;;;7.97;;
39600;SDS011;25297;44.758;11.310;2024-01-06T00:39:22;9.77;;;8.60;;
39600;SDS011;25297;44.758;11.310;2024-01-06T00:41:48;8.07;;;7.20;;
39600;SDS011;25297;44.758;11.310;2024-01-06T00:44:13;11.52;;;8.05;;
39600;SDS011;25297;44.758;11.310;2024-01-06T00:46:39;8.40;;;7.50;;
39600;SDS011;25297;44.758;11.310;2024-01-06T00:49:05;12.55;;;7.30;;
39600;SDS011;25297;44.758;11.310;2024-01-06T00:51:30;11.63;;;9.80;;
39600;SDS011;25297;44.758;11.310;2024-01-06T00:53:56;10.73;;;8.85;;
39600;SDS011;25297;44.758;11.310;2024-01-06T00:56:22;9.15;;;7.28;;
39600;SDS011;25297;44.758;11.310;2024-01-06T00:58:48;13.40;;;8.60;;
39600;SDS011;25297;44.758;11.310;2024-01-06T01:01:13;9.63;;;7.00;;
39600;SDS011;25297;44.758;11.310;2024-01-06T01:03:39;9.02;;;6.95;;
39600;SDS011;25297;44.758;11.310;2024-01-06T01:06:04;8.32;;;6.18;;
39600;SDS011;25297;44.758;11.310;2024-01-06T01:08:30;11.43;;;8.18;;
39600;SDS011;25297;44.758;11.310;2024-01-06T01:10:57;9.90;;;8.68;;
39600;SDS011;25297;44.758;11.310;2024-01-06T01:13:23;8.10;;;7.30;;
39600;SDS011;25297;44.758;11.310;2024-01-06T01:15:48;10.40;;;9.02;;
39600;SDS011;25297;44.758;11.310;2024-01-06T01:18:14;9.45;;;8.55;;
39600;SDS011;25297;44.758;11.310;2024-01-06T01:20:40;11.77;;;9.02;;
39600;SDS011;25297;44.758;11.310;2024-01-06T01:23:08;10.70;;;8.25;;
39600;SDS011;25297;44.758;11.310;2024-01-06T01:25:34;11.48;;;9.90;;
39600;SDS011;25297;44.758;11.310;2024-01-06T01:27:59;17.17;;;8.45;;
39600;SDS011;25297;44.758;11.310;2024-01-06T01:30:25;10.25;;;8.02;;
39600;SDS011;25297;44.758;11.310;2024-01-06T01:32:51;9.93;;;7.50;;
39600;SDS011;25297;44.758;11.310;2024-01-06T01:35:16;11.52;;;9.20;;
39600;SDS011;25297;44.758;11.310;2024-01-06T01:37:42;13.55;;;8.93;;
39600;SDS011;25297;44.758;11.310;2024-01-06T01:40:07;11.85;;;7.65;;
39600;SDS011;25297;44.758;11.310;2024-01-06T01:42:33;9.77;;;7.95;;
39600;SDS011;25297;44.758;11.310;2024-01-06T01:44:59;11.43;;;7.95;;
39600;SDS011;25297;44.758;11.310;2024-01-06T01:47:25;11.85;;;7.47;;
39600;SDS011;25297;44.758;11.310;2024-01-06T01:49:52;8.60;;;6.57;;
39600;SDS011;25297;44.758;11.310;2024-01-06T01:52:19;8.52;;;7.10;;
39600;SDS011;25297;44.758;11.310;2024-01-06T01:54:45;10.35;;;7.25;;
39600;SDS011;25297;44.758;11.310;2024-01-06T01:57:11;9.60;;;7.43;;
39600;SDS011;25297;44.758;11.310;2024-01-06T01:59:38;7.38;;;6.47;;
39600;SDS011;25297;44.758;11.310;2024-01-06T02:02:04;10.73;;;6.80;;
39600;SDS011;25297;44.758;11.310;2024-01-06T02:04:31;8.68;;;6.30;;
39600;SDS011;25297;44.758;11.310;2024-01-06T02:06:57;9.93;;;7.28;;
39600;SDS011;25297;44.758;11.310;2024-01-06T02:09:22;9.90;;;7.43;;
39600;SDS011;25297;44.758;11.310;2024-01-06T02:11:52;10.07;;;7.97;;
39600;SDS011;25297;44.758;11.310;2024-01-06T02:14:18;10.98;;;7.25;;
39600;SDS011;25297;44.758;11.310;2024-01-06T02:16:43;7.82;;;6.30;;
39600;SDS011;25297;44.758;11.310;2024-01-06T02:19:11;10.18;;;7.90;;
39600;SDS011;25297;44.758;11.310;2024-01-06T02:21:42;9.68;;;6.60;;
39600;SDS011;25297;44.758;11.310;2024-01-06T02:24:09;7.13;;;6.10;;
39600;SDS011;25297;44.758;11.310;2024-01-06T02:26:35;11.52;;;6.65;;
39600;SDS011;25297;44.758;11.310;2024-01-06T02:29:00;9.02;;;6.40;;
39600;SDS011;25297;44.758;11.310;2024-01-06T02:31:26;8.18;;;5.95;;
39600;SDS011;25297;44.758;11.310;2024-01-06T02:33:52;8.05;;;5.43;;
39600;SDS011;25297;44.758;11.310;2024-01-06T02:36:18;9.40;;;6.70;;
39600;SDS011;25297;44.758;11.310;2024-01-06T02:38:44;10.30;;;6.18;;
39600;SDS011;25297;44.758;11.310;2024-01-06T02:41:10;11.98;;;6.47;;
39600;SDS011;25297;44.758;11.310;2024-01-06T02:43:35;7.43;;;6.00;;
39600;SDS011;25297;44.758;11.310;2024-01-06T02:46:01;9.57;;;6.68;;
39600;SDS011;25297;44.758;11.310;2024-01-06T02:48:26;8.77;;;6.28;;
39600;SDS011;25297;44.758;11.310;2024-01-06T02:50:54;8.00;;;6.25;;
39600;SDS011;25297;44.758;11.310;2024-01-06T02:53:20;10.35;;;6.40;;
39600;SDS011;25297;44.758;11.310;2024-01-06T02:55:46;10.48;;;6.90;;
39600;SDS011;25297;44.758;11.310;2024-01-06T02:58:11;10.07;;;5.68;;
39600;SDS011;25297;44.758;11.310;2024-01-06T03:00:37;9.13;;;6.32;;
39600;SDS011;25297;44.758;11.310;2024-01-06T03:03:03;8.07;;;6.50;;
39600;SDS011;25297;44.758;11.310;2024-01-06T03:05:28;9.13;;;6.40;;
39600;SDS011;25297;44.758;11.310;2024-01-06T03:07:54;12.27;;;7.40;;
39600;SDS011;25297;44.758;11.310;2024-01-06T03:10:19;7.65;;;6.47;;
39600;SDS011;25297;44.758;11.310;2024-01-06T03:12:45;10.00;;;6.68;;
39600;SDS011;25297;44.758;11.310;2024-01-06T03:15:11;8.85;;;6.22;;
39600;SDS011;25297;44.758;11.310;2024-01-06T03:17:36;11.45;;;6.95;;
39600;SDS011;25297;44.758;11.310;2024-01-06T03:20:02;9.18;;;7.57;;
39600;SDS011;25297;44.758;11.310;2024-01-06T03:22:29;11.75;;;7.40;;
39600;SDS011;25297;44.758;11.310;2024-01-06T03:24:55;9.13;;;6.70;;
39600;SDS011;25297;44.758;11.310;2024-01-06T03:27:20;11.50;;;7.20;;
39600;SDS011;25297;44.758;11.310;2024-01-06T03:29:46;12.32;;;8.15;;
39600;SDS011;25297;44.758;11.310;2024-01-06T03:32:11;12.85;;;7.32;;
39600;SDS011;25297;44.758;11.310;2024-01-06T03:34:37;10.13;;;6.68;;
39600;SDS011;25297;44.758;11.310;2024-01-06T03:37:03;9.48;;;7.50;;
39600;SDS011;25297;44.758;11.310;2024-01-06T03:39:28;12.48;;;7.32;;
39600;SDS011;25297;44.758;11.310;2024-01-06T03:41:54;12.50;;;7.50;;
39600;SDS011;25297;44.758;11.310;2024-01-06T03:44:20;11.38;;;7.45;;
39600;SDS011;25297;44.758;11.310;2024-01-06T03:46:45;13.13;;;6.97;;
39600;SDS011;25297;44.758;11.310;2024-01-06T03:49:11;9.40;;;6.97;;
39600;SDS011;25297;44.758;11.310;2024-01-06T03:51:36;8.32;;;6.78;;
39600;SDS011;25297;44.758;11.310;2024-01-06T03:54:02;10.50;;;7.40;;
39600;SDS011;25297;44.758;11.310;2024-01-06T03:56:27;9.77;;;7.82;;
39600;SDS011;25297;44.758;11.310;2024-01-06T03:58:53;8.00;;;6.15;;
39600;SDS011;25297;44.758;11.310;2024-01-06T04:01:19;8.90;;;6.60;;
39600;SDS011;25297;44.758;11.310;2024-01-06T04:03:46;9.80;;;7.32;;
39600;SDS011;25297;44.758;11.310;2024-01-06T04:06:11;10.13;;;6.38;;
39600;SDS011;25297;44.758;11.310;2024-01-06T04:08:38;8.90;;;6.18;;
39600;SDS011;25297;44.758;11.310;2024-01-06T04:11:05;7.88;;;5.75;;
39600;SDS011;25297;44.758;11.310;2024-01-06T04:13:31;8.50;;;5.93;;
39600;SDS011;25297;44.758;11.310;2024-01-06T04:15:56;7.05;;;5.65;;
39600;SDS011;25297;44.758;11.310;2024-01-06T04:18:22;7.68;;;5.25;;
39600;SDS011;25297;44.758;11.310;2024-01-06T04:20:47;7.07;;;5.72;;
39600;SDS011;25297;44.758;11.310;2024-01-06T04:23:13;6.78;;;5.82;;
39600;SDS011;25297;44.758;11.310;2024-01-06T04:25:38;8.30;;;6.45;;
39600;SDS011;25297;44.758;11.310;2024-01-06T04:28:04;6.95;;;6.03;;
39600;SDS011;25297;44.758;11.310;2024-01-06T04:30:30;7.30;;;6.38;;
39600;SDS011;25297;44.758;11.310;2024-01-06T04:32:55;8.63;;;6.85;;
39600;SDS011;25297;44.758;11.310;2024-01-06T04:35:22;9.32;;;8.32;;
39600;SDS011;25297;44.758;11.310;2024-01-06T04:37:48;9.73;;;7.80;;
39600;SDS011;25297;44.758;11.310;2024-01-06T04:40:14;9.40;;;7.78;;
39600;SDS011;25297;44.758;11.310;2024-01-06T04:42:39;8.90;;;8.00;;
39600;SDS011;25297;44.758;11.310;2024-01-06T04:45:05;10.80;;;8.95;;
39600;SDS011;25297;44.758;11.310;2024-01-06T04:47:31;10.43;;;8.73;;
39600;SDS011;25297;44.758;11.310;2024-01-06T04:49:57;12.00;;;9.98;;
39600;SDS011;25297;44.758;11.310;2024-01-06T04:52:23;9.35;;;7.88;;
39600;SDS011;25297;44.758;11.310;2024-01-06T04:54:48;9.85;;;8.35;;
39600;SDS011;25297;44.758;11.310;2024-01-06T04:57:14;10.38;;;8.60;;
39600;SDS011;25297;44.758;11.310;2024-01-06T04:59:40;8.82;;;7.93;;
39600;SDS011;25297;44.758;11.310;2024-01-06T05:02:06;8.00;;;7.20;;
39600;SDS011;25297;44.758;11.310;2024-01-06T05:04:32;7.40;;;6.70;;
39600;SDS011;25297;44.758;11.310;2024-01-06T05:06:58;8.77;;;7.80;;
39600;SDS011;25297;44.758;11.310;2024-01-06T05:09:24;8.15;;;7.25;;
39600;SDS011;25297;44.758;11.310;2024-01-06T05:11:50;8.68;;;6.75;;
39600;SDS011;25297;44.758;11.310;2024-01-06T05:14:16;8.43;;;7.07;;
39600;SDS011;25297;44.758;11.310;2024-01-06T05:16:41;7.38;;;6.57;;
39600;SDS011;25297;44.758;11.310;2024-01-06T05:19:07;6.93;;;5.85;;
39600;SDS011;25297;44.758;11.310;2024-01-06T05:21:33;7.35;;;6.63;;
39600;SDS011;25297;44.758;11.310;2024-01-06T05:23:59;8.30;;;6.68;;
39600;SDS011;25297;44.758;11.310;2024-01-06T05:26:25;7.07;;;6.40;;
39600;SDS011;25297;44.758;11.310;2024-01-06T05:28:52;5.93;;;5.32;;
39600;SDS011;25297;44.758;11.310;2024-01-06T05:31:17;6.75;;;5.68;;
39600;SDS011;25297;44.758;11.310;2024-01-06T05:33:43;8.02;;;5.30;;
39600;SDS011;25297;44.758;11.310;2024-01-06T05:36:09;7.03;;;5.55;;
39600;SDS011;25297;44.758;11.310;2024-01-06T05:38:36;7.07;;;6.13;;
39600;SDS011;25297;44.758;11.310;2024-01-06T05:41:01;7.00;;;6.32;;
39600;SDS011;25297;44.758;11.310;2024-01-06T05:43:27;7.07;;;5.75;;
39600;SDS011;25297;44.758;11.310;2024-01-06T05:45:53;5.70;;;5.20;;
39600;SDS011;25297;44.758;11.310;2024-01-06T05:48:19;5.95;;;5.45;;
39600;SDS011;25297;44.758;11.310;2024-01-06T05:50:44;6.05;;;5.38;;
39600;SDS011;25297;44.758;11.310;2024-01-06T05:53:10;5.80;;;5.05;;
39600;SDS011;25297;44.758;11.310;2024-01-06T05:55:36;8.05;;;7.03;;
39600;SDS011;25297;44.758;11.310;2024-01-06T05:58:03;5.13;;;4.70;;
39600;SDS011;25297;44.758;11.310;2024-01-06T06:00:29;5.35;;;4.95;;
39600;SDS011;25297;44.758;11.310;2024-01-06T06:02:58;5.43;;;4.93;;
39600;SDS011;25297;44.758;11.310;2024-01-06T06:05:23;5.85;;;5.00;;
39600;SDS011;25297;44.758;11.310;2024-01-06T06:07:49;5.55;;;5.05;;
39600;SDS011;25297;44.758;11.310;2024-01-06T06:10:15;4.82;;;4.43;;
39600;SDS011;25297;44.758;11.310;2024-01-06T06:12:41;4.68;;;4.28;;
39600;SDS011;25297;44.758;11.310;2024-01-06T06:15:07;5.07;;;4.68;;
39600;SDS011;25297;44.758;11.310;2024-01-06T06:17:33;4.63;;;4.22;;
39600;SDS011;25297;44.758;11.310;2024-01-06T06:19:59;5.07;;;4.65;;
39600;SDS011;25297;44.758;11.310;2024-01-06T06:22:25;5.63;;;5.05;;
39600;SDS011;25297;44.758;11.310;2024-01-06T06:24:54;6.45;;;5.85;;
39600;SDS011;25297;44.758;11.310;2024-01-06T06:27:29;5.85;;;5.32;;
39600;SDS011;25297;44.758;11.310;2024-01-06T06:29:55;6.70;;;5.10;;
39600;SDS011;25297;44.758;11.310;2024-01-06T06:32:23;5.13;;;4.63;;
39600;SDS011;25297;44.758;11.310;2024-01-06T06:34:50;5.38;;;4.85;;
39600;SDS011;25297;44.758;11.310;2024-01-06T06:37:15;5.40;;;4.90;;
39600;SDS011;25297;44.758;11.310;2024-01-06T06:39:41;5.47;;;5.00;;
39600;SDS011;25297;44.758;11.310;2024-01-06T06:42:09;10.13;;;6.68;;
39600;SDS011;25297;44.758;11.310;2024-01-06T06:44:34;4.88;;;4.47;;
39600;SDS011;25297;44.758;11.310;2024-01-06T06:47:00;6.68;;;5.45;;
39600;SDS011;25297;44.758;11.310;2024-01-06T06:49:26;5.30;;;4.80;;
39600;SDS011;25297;44.758;11.310;2024-01-06T06:51:51;5.22;;;4.72;;
39600;SDS011;25297;44.758;11.310;2024-01-06T06:54:17;5.80;;;5.30;;
39600;SDS011;25297;44.758;11.310;2024-01-06T06:56:43;5.80;;;5.30;;
39600;SDS011;25297;44.758;11.310;2024-01-06T06:59:08;6.22;;;5.60;;
39600;SDS011;25297;44.758;11.310;2024-01-06T07:01:34;6.25;;;5.65;;
39600;SDS011;25297;44.758;11.310;2024-01-06T07:04:01;6.72;;;6.13;;
39600;SDS011;25297;44.758;11.310;2024-01-06T07:06:27;10.73;;;9.60;;
39600;SDS011;25297;44.758;11.310;2024-01-06T07:08:53;7.80;;;6.63;;
39600;SDS011;25297;44.758;11.310;2024-01-06T07:11:20;7.20;;;6.45;;
39600;SDS011;25297;44.758;11.310;2024-01-06T07:13:45;10.77;;;8.85;;
39600;SDS011;25297;44.758;11.310;2024-01-06T07:16:11;7.63;;;6.93;;
39600;SDS011;25297;44.758;11.310;2024-01-06T07:18:37;6.75;;;6.05;;
39600;SDS011;25297;44.758;11.310;2024-01-06T07:21:06;7.55;;;6.85;;
39600;SDS011;25297;44.758;11.310;2024-01-06T07:23:32;9.35;;;8.10;;
39600;SDS011;25297;44.758;11.310;2024-01-06T07:25:57;9.43;;;8.43;;
39600;SDS011;25297;44.758;11.310;2024-01-06T07:28:23;9.95;;;9.00;;
39600;SDS011;25297;44.758;11.310;2024-01-06T07:30:49;10.05;;;9.05;;
39600;SDS011;25297;44.758;11.310;2024-01-06T07:33:15;9.50;;;8.55;;
39600;SDS011;25297;44.758;11.310;2024-01-06T07:35:40;9.05;;;7.53;;
39600;SDS011;25297;44.758;11.310;2024-01-06T07:38:09;8.20;;;7.40;;
39600;SDS011;25297;44.758;11.310;2024-01-06T07:40:35;8.77;;;7.97;;
39600;SDS011;25297;44.758;11.310;2024-01-06T07:43:01;8.23;;;7.38;;
39600;SDS011;25297;44.758;11.310;2024-01-06T07:45:27;7.80;;;7.05;;
39600;SDS011;25297;44.758;11.310;2024-01-06T07:47:53;10.55;;;9.55;;
39600;SDS011;25297;44.758;11.310;2024-01-06T07:50:18;8.20;;;7.40;;
39600;SDS011;25297;44.758;11.310;2024-01-06T07:52:44;7.82;;;7.13;;
39600;SDS011;25297;44.758;11.310;2024-01-06T07:55:09;8.77;;;7.60;;
39600;SDS011;25297;44.758;11.310;2024-01-06T07:57:35;9.52;;;8.43;;
39600;SDS011;25297;44.758;11.310;2024-01-06T08:00:01;9.65;;;7.85;;
39600;SDS011;25297;44.758;11.310;2024-01-06T08:02:27;8.43;;;7.63;;
39600;SDS011;25297;44.758;11.310;2024-01-06T08:04:52;11.57;;;10.35;;
39600;SDS011;25297;44.758;11.310;2024-01-06T08:07:20;8.35;;;7.57;;
39600;SDS011;25297;44.758;11.310;2024-01-06T08:09:46;8.43;;;7.53;;
39600;SDS011;25297;44.758;11.310;2024-01-06T08:12:12;9.43;;;8.52;;
39600;SDS011;25297;44.758;11.310;2024-01-06T08:14:38;9.18;;;8.13;;
39600;SDS011;25297;44.758;11.310;2024-01-06T08:17:03;10.32;;;9.27;;
39600;SDS011;25297;44.758;11.310;2024-01-06T08:19:29;9.50;;;8.15;;
39600;SDS011;25297;44.758;11.310;2024-01-06T08:21:56;9.38;;;8.45;;
39600;SDS011;25297;44.758;11.310;2024-01-06T08:24:22;10.40;;;9.25;;
39600;SDS011;25297;44.758;11.310;2024-01-06T08:26:47;10.98;;;9.63;;
39600;SDS011;25297;44.758;11.310;2024-01-06T08:29:13;11.85;;;9.82;;
39600;SDS011;25297;44.758;11.310;2024-01-06T08:31:41;12.15;;;10.48;;
39600;SDS011;25297;44.758;11.310;2024-01-06T08:34:07;12.45;;;11.13;;
39600;SDS011;25297;44.758;11.310;2024-01-06T08:36:33;12.63;;;11.32;;
39600;SDS011;25297;44.758;11.310;2024-01-06T08:38:59;11.43;;;10.23;;
39600;SDS011;25297;44.758;11.310;2024-01-06T08:41:25;11.48;;;10.27;;
39600;SDS011;25297;44.758;11.310;2024-01-06T08:43:51;12.40;;;10.82;;
39600;SDS011;25297;44.758;11.310;2024-01-06T08:46:16;13.02;;;10.63;;
39600;SDS011;25297;44.758;11.310;2024-01-06T08:48:42;12.15;;;10.55;;
39600;SDS011;25297;44.758;11.310;2024-01-06T08:51:08;12.38;;;11.07;;
39600;SDS011;25297;44.758;11.310;2024-01-06T08:53:34;15.10;;;11.43;;
39600;SDS011;25297;44.758;11.310;2024-01-06T08:55:59;11.57;;;10.38;;
39600;SDS011;25297;44.758;11.310;2024-01-06T08:58:25;13.20;;;11.73;;
39600;SDS011;25297;44.758;11.310;2024-01-06T09:00:51;11.85;;;10.57;;
39600;SDS011;25297;44.758;11.310;2024-01-06T09:03:18;11.43;;;9.80;;
39600;SDS011;25297;44.758;11.310;2024-01-06T09:08:16;12.57;;;9.95;;
39600;SDS011;25297;44.758;11.310;2024-01-06T09:10:42;11.73;;;10.52;;
39600;SDS011;25297;44.758;11.310;2024-01-06T09:13:08;12.07;;;9.95;;
39600;SDS011;25297;44.758;11.310;2024-01-06T09:15:33;12.07;;;10.77;;
39600;SDS011;25297;44.758;11.310;2024-01-06T09:17:59;12.95;;;10.63;;
39600;SDS011;25297;44.758;11.310;2024-01-06T09:20:25;13.15;;;11.35;;
39600;SDS011;25297;44.758;11.310;2024-01-06T09:22:52;13.13;;;11.73;;
39600;SDS011;25297;44.758;11.310;2024-01-06T09:25:18;12.07;;;10.82;;
39600;SDS011;25297;44.758;11.310;2024-01-06T09:27:43;12.02;;;10.77;;
39600;SDS011;25297;44.758;11.310;2024-01-06T09:30:09;15.43;;;13.48;;
39600;SDS011;25297;44.758;11.310;2024-01-06T09:32:36;11.98;;;10.48;;
39600;SDS011;25297;44.758;11.310;2024-01-06T09:35:01;12.95;;;11.60;;
39600;SDS011;25297;44.758;11.310;2024-01-06T09:37:28;12.77;;;11.10;;
39600;SDS011;25297;44.758;11.310;2024-01-06T09:39:54;12.23;;;10.93;;
39600;SDS011;25297;44.758;11.310;2024-01-06T09:42:20;12.23;;;10.95;;
39600;SDS011;25297;44.758;11.310;2024-01-06T09:44:45;13.50;;;12.18;;
39600;SDS011;25297;44.758;11.310;2024-01-06T09:47:11;12.45;;;11.15;;
39600;SDS011;25297;44.758;11.310;2024-01-06T09:49:38;13.70;;;11.93;;
39600;SDS011;25297;44.758;11.310;2024-01-06T09:52:08;12.98;;;11.45;;
39600;SDS011;25297;44.758;11.310;2024-01-06T09:54:41;13.30;;;11.88;;
39600;SDS011;25297;44.758;11.310;2024-01-06T09:57:16;12.77;;;11.07;;
39600;SDS011;25297;44.758;11.310;2024-01-06T09:59:45;12.65;;;11.35;;
39600;SDS011;25297;44.758;11.310;2024-01-06T10:02:15;12.27;;;10.93;;
39600;SDS011;25297;44.758;11.310;2024-01-06T10:04:42;12.55;;;11.23;;
39600;SDS011;25297;44.758;11.310;2024-01-06T10:07:11;12.95;;;11.52;;
39600;SDS011;25297;44.758;11.310;2024-01-06T10:09:38;12.10;;;10.80;;
39600;SDS011;25297;44.758;11.310;2024-01-06T10:12:07;12.73;;;11.32;;
39600;SDS011;25297;44.758;11.310;2024-01-06T10:14:34;11.48;;;10.27;;
39600;SDS011;25297;44.758;11.310;2024-01-06T10:17:01;11.85;;;10.40;;
39600;SDS011;25297;44.758;11.310;2024-01-06T10:19:26;12.00;;;10.07;;
39600;SDS011;25297;44.758;11.310;2024-01-06T10:21:52;12.90;;;11.43;;
39600;SDS011;25297;44.758;11.310;2024-01-06T10:24:18;11.23;;;10.02;;
39600;SDS011;25297;44.758;11.310;2024-01-06T10:26:47;10.85;;;9.77;;
39600;SDS011;25297;44.758;11.310;2024-01-06T10:29:13;11.52;;;10.15;;
39600;SDS011;25297;44.758;11.310;2024-01-06T10:31:38;11.45;;;9.27;;
39600;SDS011;25297;44.758;11.310;2024-01-06T10:34:04;11.20;;;9.82;;
39600;SDS011;25297;44.758;11.310;2024-01-06T10:36:31;8.93;;;7.60;;
39600;SDS011;25297;44.758;11.310;2024-01-06T10:38:57;9.50;;;8.25;;
39600;SDS011;25297;44.758;11.310;2024-01-06T10:41:22;9.32;;;8.30;;
39600;SDS011;25297;44.758;11.310;2024-01-06T10:43:50;10.75;;;7.97;;
39600;SDS011;25297;44.758;11.310;2024-01-06T10:46:17;8.60;;;7.80;;
39600;SDS011;25297;44.758;11.310;2024-01-06T10:48:44;8.70;;;7.70;;
39600;SDS011;25297;44.758;11.310;2024-01-06T10:51:11;8.30;;;7.43;;
39600;SDS011;25297;44.758;11.310;2024-01-06T10:53:39;8.20;;;7.40;;
39600;SDS011;25297;44.758;11.310;2024-01-06T10:56:06;7.55;;;6.75;;
39600;SDS011;25297;44.758;11.310;2024-01-06T10:58:39;7.53;;;6.80;;
39600;SDS011;25297;44.758;11.310;2024-01-06T11:01:12;6.70;;;6.00;;
39600;SDS011;25297;44.758;11.310;2024-01-06T11:03:38;8.68;;;6.75;;
39600;SDS011;25297;44.758;11.310;2024-01-06T11:06:07;9.13;;;7.95;;
39600;SDS011;25297;44.758;11.310;2024-01-06T11:09:19;6.40;;;5.75;;
39600;SDS011;25297;44.758;11.310;2024-01-06T11:11:38;6.40;;;5.63;;
39600;SDS011;25297;44.758;11.310;2024-01-06T11:14:21;6.00;;;5.38;;
39600;SDS011;25297;44.758;11.310;2024-01-06T11:16:53;7.82;;;6.57;;
39600;SDS011;25297;44.758;11.310;2024-01-06T11:20:02;5.63;;;5.05;;
39600;SDS011;25297;44.758;11.310;2024-01-06T11:24:49;6.32;;;5.72;;
39600;SDS011;25297;44.758;11.310;2024-01-06T11:27:23;6.15;;;5.55;;
39600;SDS011;25297;44.758;11.310;2024-01-06T11:29:56;6.13;;;5.53;;
39600;SDS011;25297;44.758;11.310;2024-01-06T11:32:29;6.65;;;5.38;;
39600;SDS011;25297;44.758;11.310;2024-01-06T11:35:21;6.45;;;5.75;;
39600;SDS011;25297;44.758;11.310;2024-01-06T11:45:28;7.45;;;6.72;;
39600;SDS011;25297;44.758;11.310;2024-01-06T11:47:55;7.30;;;6.53;;
39600;SDS011;25297;44.758;11.310;2024-01-06T11:50:25;8.02;;;7.22;;
39600;SDS011;25297;44.758;11.310;2024-01-06T11:52:52;7.82;;;7.03;;
39600;SDS011;25297;44.758;11.310;2024-01-06T11:55:18;7.70;;;6.93;;
39600;SDS011;25297;44.758;11.310;2024-01-06T11:57:45;8.70;;;7.78;;
39600;SDS011;25297;44.758;11.310;2024-01-06T12:00:11;8.13;;;7.32;;
39600;SDS011;25297;44.758;11.310;2024-01-06T12:02:39;7.97;;;7.18;;
39600;SDS011;25297;44.758;11.310;2024-01-06T12:05:05;8.45;;;7.65;;
39600;SDS011;25297;44.758;11.310;2024-01-06T12:07:31;10.43;;;7.85;;
39600;SDS011;25297;44.758;11.310;2024-01-06T12:10:00;8.35;;;7.35;;
39600;SDS011;25297;44.758;11.310;2024-01-06T12:12:27;8.43;;;7.43;;
39600;SDS011;25297;44.758;11.310;2024-01-06T12:14:53;7.82;;;7.03;;
39600;SDS011;25297;44.758;11.310;2024-01-06T12:17:19;8.25;;;7.40;;
39600;SDS011;25297;44.758;11.310;2024-01-06T12:19:46;7.85;;;7.05;;
39600;SDS011;25297;44.758;11.310;2024-01-06T12:22:13;9.10;;;7.78;;
39600;SDS011;25297;44.758;11.310;2024-01-06T12:24:40;8.10;;;7.30;;
39600;SDS011;25297;44.758;11.310;2024-01-06T12:27:10;8.45;;;7.65;;
39600;SDS011;25297;44.758;11.310;2024-01-06T12:29:40;9.20;;;7.72;;
39600;SDS011;25297;44.758;11.310;2024-01-06T12:32:06;7.90;;;6.72;;
39600;SDS011;25297;44.758;11.310;2024-01-06T12:34:33;8.02;;;7.22;;
39600;SDS011;25297;44.758;11.310;2024-01-06T12:37:00;7.75;;;6.97;;
39600;SDS011;25297;44.758;11.310;2024-01-06T12:39:29;8.52;;;7.63;;
39600;SDS011;25297;44.758;11.310;2024-01-06T12:41:56;7.38;;;6.68;;
39600;SDS011;25297;44.758;11.310;2024-01-06T12:44:22;6.65;;;5.95;;
39600;SDS011;25297;44.758;11.310;2024-01-06T12:46:48;7.70;;;6.80;;
39600;SDS011;25297;44.758;11.310;2024-01-06T12:49:14;7.07;;;6.28;;
39600;SDS011;25297;44.758;11.310;2024-01-06T12:51:39;8.25;;;7.10;;
39600;SDS011;25297;44.758;11.310;2024-01-06T12:54:05;7.28;;;6.55;;
39600;SDS011;25297;44.758;11.310;2024-01-06T12:56:31;7.03;;;6.32;;
39600;SDS011;25297;44.758;11.310;2024-01-06T12:58:56;7.18;;;6.38;;
39600;SDS011;25297;44.758;11.310;2024-01-06T13:01:22;6.93;;;6.22;;
39600;SDS011;25297;44.758;11.310;2024-01-06T13:03:48;6.97;;;6.28;;
39600;SDS011;25297;44.758;11.310;2024-01-06T13:06:13;6.75;;;6.05;;
39600;SDS011;25297;44.758;11.310;2024-01-06T13:08:41;7.18;;;6.47;;
39600;SDS011;25297;44.758;11.310;2024-01-06T13:11:07;7.00;;;6.30;;
39600;SDS011;25297;44.758;11.310;2024-01-06T13:13:33;7.03;;;6.32;;
39600;SDS011;25297;44.758;11.310;2024-01-06T13:15:59;7.18;;;6.25;;
39600;SDS011;25297;44.758;11.310;2024-01-06T13:18:28;7.05;;;6.35;;
39600;SDS011;25297;44.758;11.310;2024-01-06T13:20:54;7.07;;;6.32;;
39600;SDS011;25297;44.758;11.310;2024-01-06T13:23:19;6.55;;;5.90;;
39600;SDS011;25297;44.758;11.310;2024-01-06T13:25:45;6.47;;;5.88;;
39600;SDS011;25297;44.758;11.310;2024-01-06T13:28:10;6.88;;;6.18;;
39600;SDS011;25297;44.758;11.310;2024-01-06T13:30:37;7.05;;;6.43;;
39600;SDS011;25297;44.758;11.310;2024-01-06T13:33:04;6.75;;;6.05;;
39600;SDS011;25297;44.758;11.310;2024-01-06T13:35:30;7.45;;;6.65;;
39600;SDS011;25297;44.758;11.310;2024-01-06T13:37:56;7.72;;;6.93;;
39600;SDS011;25297;44.758;11.310;2024-01-06T13:40:22;7.95;;;7.15;;
39600;SDS011;25297;44.758;11.310;2024-01-06T13:42:49;7.93;;;7.13;;
39600;SDS011;25297;44.758;11.310;2024-01-06T13:45:18;7.63;;;6.30;;
39600;SDS011;25297;44.758;11.310;2024-01-06T13:47:44;7.18;;;6.47;;
39600;SDS011;25297;44.758;11.310;2024-01-06T13:50:13;8.35;;;6.88;;
39600;SDS011;25297;44.758;11.310;2024-01-06T13:52:41;11.40;;;9.00;;
39600;SDS011;25297;44.758;11.310;2024-01-06T13:55:07;8.20;;;7.40;;
39600;SDS011;25297;44.758;11.310;2024-01-06T13:57:33;8.75;;;6.97;;
39600;SDS011;25297;44.758;11.310;2024-01-06T14:00:00;6.90;;;6.18;;
39600;SDS011;25297;44.758;11.310;2024-01-06T14:02:25;9.05;;;8.15;;
39600;SDS011;25297;44.758;11.310;2024-01-06T14:04:53;8.00;;;7.20;;
39600;SDS011;25297;44.758;11.310;2024-01-06T14:07:19;8.32;;;7.53;;
39600;SDS011;25297;44.758;11.310;2024-01-06T14:09:48;7.90;;;7.07;;
39600;SDS011;25297;44.758;11.310;2024-01-06T14:12:14;7.75;;;6.95;;
39600;SDS011;25297;44.758;11.310;2024-01-06T14:14:39;7.60;;;6.90;;
39600;SDS011;25297;44.758;11.310;2024-01-06T14:17:08;7.97;;;7.20;;
39600;SDS011;25297;44.758;11.310;2024-01-06T14:19:34;8.95;;;8.05;;
39600;SDS011;25297;44.758;11.310;2024-01-06T14:22:00;7.85;;;7.15;;
39600;SDS011;25297;44.758;11.310;2024-01-06T14:24:25;6.90;;;6.22;;
39600;SDS011;25297;44.758;11.310;2024-01-06T14:26:52;7.75;;;6.97;;
39600;SDS011;25297;44.758;11.310;2024-01-06T14:29:18;7.68;;;6.85;;
39600;SDS011;25297;44.758;11.310;2024-01-06T14:31:44;8.32;;;7.53;;
39600;SDS011;25297;44.758;11.310;2024-01-06T14:34:10;7.88;;;7.07;;
39600;SDS011;25297;44.758;11.310;2024-01-06T14:36:36;7.68;;;6.22;;